Time;durP1;ratioP1;P1;durP2;ratioP2;P2;SDS_P1;SDS_P2;PMS_P1;PMS_P2;Temp;Humidity;BMP_temperature;BMP_pressure;BME280_temperature;BME280_humidity;BME280_pressure;Samples;Min_cycle;Max_cycle;Signal;HPM_P1;HPM_P2
2021/05/20 21:05:07;;;;;;;;;8.25;7.50;;;;;17.10;46.67;98512.38;6181787;22;103553;-96
2021/05/20 21:07:36;;;;;;;;;6.50;5.75;;;;;17.05;46.65;98507.66;6061610;22;108968;-96
2021/05/20 21:10:05;;;;;;;;;6.00;6.00;;;;;17.03;46.50;98507.06;6117722;22;102527;-96
2021/05/20 21:20:40;;;;;;;;;7.00;6.00;;;;;17.01;46.58;98508.38;6223849;22;102352;-96
2021/05/20 21:23:08;;;;;;;;;8.00;6.25;;;;;16.99;46.36;98499.59;6149044;22;102027;-96
2021/05/20 21:25:37;;;;;;;;;8.75;6.00;;;;;16.97;45.78;98507.22;6145952;22;101966;-96
2021/05/20 21:28:09;;;;;;;;;7.50;7.00;;;;;17.03;46.22;98511.69;5990240;22;104538;-96
2021/05/20 21:30:37;;;;;;;;;7.25;6.00;;;;;16.96;46.32;98506.38;6144514;22;102167;-96
2021/05/20 21:33:07;;;;;;;;;6.50;6.50;;;;;16.97;45.69;98507.22;6155331;22;102046;-96
2021/05/20 21:35:36;;;;;;;;;7.00;7.00;;;;;16.94;46.44;98497.59;6170574;22;102058;-96
2021/05/20 21:38:14;;;;;;;;;8.00;7.25;;;;;16.93;47.09;98502.22;6176481;22;103523;-96
2021/05/20 21:40:45;;;;;;;;;7.00;7.00;;;;;16.99;46.42;98516.81;6179736;22;102229;-96
2021/05/20 21:43:25;;;;;;;;;7.75;6.25;;;;;16.95;46.35;98505.56;6107594;22;103037;-96
2021/05/20 21:46:14;;;;;;;;;9.25;7.50;;;;;16.88;46.60;98496.69;5969126;22;102072;-96
2021/05/20 21:48:52;;;;;;;;;8.00;7.75;;;;;16.87;45.28;98502.38;6117165;22;102967;-96
2021/05/20 21:51:19;;;;;;;;;8.00;7.25;;;;;16.90;46.27;98497.25;6130960;22;101548;-96
2021/05/20 21:53:47;;;;;;;;;9.75;8.00;;;;;16.89;46.76;98497.50;6141669;22;101864;-96
2021/05/20 21:56:38;;;;;;;;;9.00;8.00;;;;;16.87;45.89;98495.03;6074313;22;103042;-96
2021/05/20 21:59:06;;;;;;;;;8.75;8.00;;;;;16.86;46.44;98495.25;6171063;22;103916;-96
2021/05/20 22:01:34;;;;;;;;;9.25;7.00;;;;;16.89;46.54;98494.75;6151794;22;102002;-96
2021/05/20 22:04:21;;;;;;;;;8.75;8.00;;;;;16.77;46.60;98480.34;6147905;22;102364;-96
2021/05/20 22:06:50;;;;;;;;;8.50;7.75;;;;;16.85;45.79;98497.16;6185447;22;102580;-96
2021/05/20 22:09:19;;;;;;;;;9.75;7.75;;;;;16.87;46.24;98505.94;6120698;22;102158;-96
2021/05/20 22:11:56;;;;;;;;;8.75;7.25;;;;;16.90;46.34;98500.00;6170158;22;102075;-96
2021/05/20 22:17:01;;;;;;;;;9.00;9.00;;;;;16.85;46.05;98499.06;6136575;22;102654;-96
2021/05/20 22:19:29;;;;;;;;;9.50;7.25;;;;;16.84;45.90;98492.75;6136051;22;102561;-95
2021/05/20 22:21:58;;;;;;;;;10.00;8.00;;;;;16.87;46.20;98503.22;6156866;22;101765;-96
2021/05/20 22:24:28;;;;;;;;;11.00;9.75;;;;;16.84;45.48;98500.16;6074368;22;103094;-96
2021/05/20 22:29:45;;;;;;;;;10.00;10.00;;;;;16.80;46.58;98494.31;6101175;22;104574;-96
2021/05/20 22:32:23;;;;;;;;;10.00;8.75;;;;;16.81;46.42;98493.25;6145071;22;102202;-96
2021/05/20 22:34:51;;;;;;;;;11.00;10.25;;;;;16.82;46.49;98499.56;6112143;22;101915;-96
2021/05/20 22:37:20;;;;;;;;;9.00;9.00;;;;;16.77;45.51;98496.72;6152681;22;102236;-96
2021/05/20 22:39:48;;;;;;;;;12.50;10.25;;;;;16.79;45.22;98506.34;6120696;22;104642;-96
2021/05/20 22:42:16;;;;;;;;;12.00;11.25;;;;;16.77;45.83;98504.91;6062934;22;102331;-96
2021/05/20 22:44:44;;;;;;;;;12.00;11.00;;;;;16.75;45.75;98486.03;6160367;22;103407;-96
2021/05/20 22:47:13;;;;;;;;;11.00;10.00;;;;;16.71;45.75;98490.31;6047563;22;102415;-96
2021/05/20 22:49:41;;;;;;;;;11.00;11.00;;;;;16.71;45.69;98486.75;6043213;22;102139;-96
2021/05/20 22:52:09;;;;;;;;;11.00;10.25;;;;;16.73;45.19;98493.66;6106777;22;105015;-96
2021/05/20 22:54:38;;;;;;;;;14.00;13.00;;;;;16.73;45.52;98501.00;6045534;22;102110;-96
2021/05/20 22:57:05;;;;;;;;;13.00;12.00;;;;;16.69;45.21;98491.66;6107510;22;102048;-96
2021/05/20 22:59:34;;;;;;;;;14.25;12.00;;;;;16.73;45.96;98501.84;6141795;22;104097;-96
2021/05/20 23:02:20;;;;;;;;;12.50;12.00;;;;;16.72;45.39;98491.16;6072208;22;102037;-96
2021/05/20 23:04:50;;;;;;;;;15.25;12.00;;;;;16.70;45.77;98488.69;6158281;22;102002;-96
2021/05/20 23:07:19;;;;;;;;;14.00;12.50;;;;;16.58;44.48;98468.78;6116542;22;102164;-96
2021/05/20 23:09:53;;;;;;;;;13.25;10.00;;;;;16.67;44.61;98496.50;6162979;22;108641;-96
2021/05/20 23:12:25;;;;;;;;;10.50;10.00;;;;;16.66;45.19;98494.88;6135734;22;102489;-96
2021/05/20 23:14:59;;;;;;;;;14.25;12.75;;;;;16.64;45.29;98511.50;6115949;22;102207;-96
2021/05/20 23:17:28;;;;;;;;;16.00;13.00;;;;;16.59;44.71;98492.28;6139510;22;102065;-96
2021/05/20 23:19:56;;;;;;;;;13.50;11.25;;;;;16.62;44.93;98499.13;6074344;22;104623;-96
2021/05/20 23:22:27;;;;;;;;;12.00;10.25;;;;;16.61;44.31;98492.03;6180890;22;101898;-96
2021/05/20 23:24:56;;;;;;;;;10.50;9.50;;;;;16.61;45.25;98498.34;6129477;22;101865;-96
2021/05/20 23:27:24;;;;;;;;;12.00;10.00;;;;;16.63;44.41;98501.63;6114162;22;102571;-96
2021/05/20 23:29:52;;;;;;;;;13.75;12.75;;;;;16.56;44.55;98500.94;6172495;22;105467;-97
2021/05/20 23:32:21;;;;;;;;;12.50;10.00;;;;;16.55;44.83;98499.25;6146654;22;102176;-96
2021/05/20 23:34:53;;;;;;;;;12.25;10.75;;;;;16.59;44.67;98495.00;6063735;22;102178;-96
2021/05/20 23:37:21;;;;;;;;;14.25;9.25;;;;;16.58;45.09;98492.50;6128542;22;104355;-96
2021/05/20 23:39:49;;;;;;;;;13.25;10.25;;;;;16.53;44.71;98496.75;6114580;22;102059;-96
2021/05/20 23:42:17;;;;;;;;;13.00;11.00;;;;;16.60;44.79;98495.84;6149526;22;102079;-96
2021/05/20 23:44:45;;;;;;;;;13.00;10.75;;;;;16.49;44.75;98489.28;6183353;22;104365;-96
2021/05/20 23:47:13;;;;;;;;;8.75;7.00;;;;;16.45;44.92;98499.03;6158821;22;102418;-96
2021/05/20 23:49:41;;;;;;;;;13.75;11.75;;;;;16.45;44.08;98491.69;6153156;22;105673;-96
2021/05/20 23:52:10;;;;;;;;;11.00;10.00;;;;;16.42;43.84;98484.00;6109103;22;101780;-96
2021/05/20 23:54:40;;;;;;;;;10.00;9.75;;;;;16.41;44.83;98485.06;6109176;22;102240;-96
2021/05/20 23:57:08;;;;;;;;;11.00;10.00;;;;;16.49;43.73;98497.47;6147235;22;101726;-96
2021/05/20 23:59:36;;;;;;;;;10.50;9.25;;;;;16.41;44.20;98481.50;6121897;22;102567;-96
